createdAt,value
2018-11-01T00:00:48.842Z,6.91
2018-11-01T00:01:48.828Z,6.86
2018-11-01T00:02:48.816Z,6.86
2018-11-01T00:03:48.819Z,6.76
2018-11-01T00:04:48.796Z,6.69
2018-11-01T00:05:48.803Z,6.65
2018-11-01T00:06:48.778Z,6.66
2018-11-01T00:07:48.759Z,6.63
2018-11-01T00:08:48.750Z,6.63
2018-11-01T00:09:48.742Z,6.66
2018-11-01T00:10:48.726Z,6.58
2018-11-01T00:11:48.747Z,6.51
2018-11-01T00:12:48.709Z,6.53
2018-11-01T00:13:48.694Z,6.59
2018-11-01T00:14:48.683Z,6.51
2018-11-01T00:15:48.672Z,6.54
2018-11-01T00:16:48.664Z,6.43
2018-11-01T00:17:48.661Z,6.48
2018-11-01T00:18:48.643Z,6.47
2018-11-01T00:19:48.626Z,6.50
2018-11-01T00:20:48.616Z,6.48
2018-11-01T00:21:48.603Z,6.48
2018-11-01T00:22:48.605Z,6.47
2018-11-01T00:23:48.594Z,6.51
2018-11-01T00:24:48.575Z,6.61
2018-11-01T00:25:48.558Z,6.54
2018-11-01T00:26:48.549Z,6.66
2018-11-01T00:27:48.536Z,6.61
2018-11-01T00:28:48.539Z,6.61
2018-11-01T00:29:48.513Z,6.58
2018-11-01T00:30:48.512Z,6.62
2018-11-01T00:31:48.492Z,6.66
2018-11-01T00:32:48.480Z,6.65
2018-11-01T00:33:48.481Z,6.61
2018-11-01T00:34:48.457Z,6.68
2018-11-01T00:35:48.445Z,6.71
2018-11-01T00:36:48.455Z,6.79
2018-11-01T00:37:48.422Z,6.79
2018-11-01T00:38:48.412Z,6.83
2018-11-01T00:39:48.403Z,6.81
2018-11-01T00:40:48.390Z,6.79
2018-11-01T00:41:48.411Z,6.80
2018-11-01T00:42:48.374Z,6.81
2018-11-01T00:43:48.354Z,6.81
2018-11-01T00:44:48.345Z,6.87
2018-11-01T00:45:48.336Z,6.72
2018-11-01T00:46:48.322Z,6.77
2018-11-01T00:47:48.344Z,6.80
2018-11-01T00:48:48.310Z,6.80
2018-11-01T00:49:48.293Z,6.83
2018-11-01T00:50:48.277Z,6.80
2018-11-01T00:51:48.267Z,6.83
2018-11-01T00:52:48.256Z,6.77
2018-11-01T00:53:48.257Z,6.84
2018-11-01T00:54:48.240Z,6.80
2018-11-01T00:55:48.221Z,6.79
2018-11-01T00:56:48.223Z,6.79
2018-11-01T00:57:48.197Z,6.77
2018-11-01T00:58:48.224Z,6.76
2018-11-01T00:59:48.175Z,6.77
2018-11-01T01:00:48.168Z,6.69
2018-11-01T01:01:48.153Z,6.69
2018-11-01T01:02:48.144Z,6.61
2018-11-01T01:03:48.131Z,6.66
2018-11-01T01:04:48.131Z,6.61
2018-11-01T01:05:48.108Z,6.66
2018-11-01T01:06:48.097Z,6.59
2018-11-01T01:07:48.096Z,6.56
2018-11-01T01:08:48.121Z,6.46
2018-11-01T01:09:48.097Z,6.51
2018-11-01T01:10:48.055Z,6.46
2018-11-01T01:11:48.040Z,6.38
2018-11-01T01:12:48.037Z,6.46
2018-11-01T01:13:48.023Z,6.43
2018-11-01T01:14:48.008Z,6.30
2018-11-01T01:15:48.009Z,6.36
2018-11-01T01:16:47.994Z,6.33
2018-11-01T01:17:47.971Z,6.32
2018-11-01T01:18:47.970Z,6.33
2018-11-01T01:19:47.955Z,6.30
2018-11-01T01:20:47.950Z,6.29
2018-11-01T01:21:47.932Z,6.29
2018-11-01T01:22:47.948Z,6.29
2018-11-01T01:23:47.904Z,6.14
2018-11-01T01:24:47.893Z,6.18
2018-11-01T01:25:47.888Z,6.11
2018-11-01T01:26:47.869Z,6.11
2018-11-01T01:27:47.859Z,6.06
2018-11-01T01:28:47.894Z,6.07
2018-11-01T01:29:47.838Z,6.03
2018-11-01T01:30:47.827Z,6.03
2018-11-01T01:31:47.827Z,6.07
2018-11-01T01:32:47.806Z,5.96
2018-11-01T01:33:47.796Z,5.98
2018-11-01T01:34:47.887Z,6.13
2018-11-01T01:35:47.769Z,6.07
2018-11-01T01:36:47.756Z,6.10
2018-11-01T01:37:47.753Z,6.13
2018-11-01T01:38:47.734Z,6.18
2018-11-01T01:39:47.723Z,6.18
2018-11-01T01:40:47.732Z,6.26
2018-11-01T01:41:47.703Z,6.25
2018-11-01T01:42:47.690Z,6.40
2018-11-01T01:43:47.683Z,6.35
2018-11-01T01:44:47.668Z,6.29
2018-11-01T01:45:47.655Z,6.38
2018-11-01T01:46:47.674Z,6.30
2018-11-01T01:47:47.633Z,6.41
2018-11-01T01:48:47.621Z,6.38
2018-11-01T01:49:47.619Z,6.38
2018-11-01T01:50:47.679Z,6.46
2018-11-01T01:51:47.589Z,6.50
2018-11-01T01:52:47.613Z,6.48
2018-11-01T01:53:47.566Z,6.59
2018-11-01T01:54:47.551Z,6.58
2018-11-01T01:55:47.551Z,6.66
2018-11-01T01:56:47.531Z,6.72
2018-11-01T01:57:47.520Z,6.61
2018-11-01T01:58:47.542Z,6.69
2018-11-01T01:59:47.501Z,6.72
2018-11-01T02:00:47.487Z,6.73
2018-11-01T02:01:47.483Z,6.83
2018-11-01T02:02:47.463Z,6.79
2018-11-01T02:03:47.452Z,6.86
2018-11-01T02:04:47.455Z,6.89
2018-11-01T02:05:47.428Z,6.89
2018-11-01T02:06:47.418Z,6.87
2018-11-01T02:07:47.430Z,6.95
2018-11-01T02:08:47.396Z,6.94
2018-11-01T02:09:47.384Z,6.89
2018-11-01T02:10:47.377Z,6.90
2018-11-01T02:11:47.502Z,6.95
2018-11-01T02:12:47.383Z,6.97
2018-11-01T02:13:47.346Z,7.07
2018-11-01T02:14:47.328Z,7.05
2018-11-01T02:15:47.317Z,7.04
2018-11-01T02:16:47.312Z,6.97
2018-11-01T02:17:47.295Z,7.04
2018-11-01T02:18:47.296Z,7.09
2018-11-01T02:19:47.277Z,6.99
2018-11-01T02:20:47.273Z,6.91
2018-11-01T02:21:47.250Z,7.04
2018-11-01T02:22:47.242Z,7.01
2018-11-01T02:23:47.232Z,7.09
2018-11-01T02:24:47.218Z,7.02
2018-11-01T02:25:47.241Z,7.01
2018-11-01T02:26:47.193Z,7.02
2018-11-01T02:27:47.182Z,7.07
2018-11-01T02:28:47.170Z,7.07
2018-11-01T02:29:47.161Z,7.08
2018-11-01T02:30:47.153Z,7.02
2018-11-01T02:31:47.159Z,7.02
2018-11-01T02:32:47.128Z,7.02
2018-11-01T02:33:47.115Z,7.02
2018-11-01T02:34:47.105Z,7.04
2018-11-01T02:35:47.094Z,7.07
2018-11-01T02:36:47.094Z,6.98
2018-11-01T02:37:47.144Z,7.04
2018-11-01T02:38:47.090Z,6.95
2018-11-01T02:39:47.049Z,6.97
2018-11-01T02:40:47.041Z,6.89
2018-11-01T02:41:47.036Z,6.99
2018-11-01T02:42:47.012Z,6.90
2018-11-01T02:43:47.044Z,6.89
2018-11-01T02:44:46.995Z,6.95
2018-11-01T02:45:46.982Z,6.95
2018-11-01T02:46:46.968Z,6.90
2018-11-01T02:47:46.959Z,6.89
2018-11-01T02:48:46.948Z,6.87
2018-11-01T02:49:46.996Z,6.86
2018-11-01T02:50:46.924Z,6.87
2018-11-01T02:51:46.912Z,6.87
2018-11-01T02:52:46.904Z,6.79
2018-11-01T02:53:46.891Z,6.84
2018-11-01T02:54:46.878Z,6.77
2018-11-01T02:55:46.891Z,6.81
2018-11-01T02:56:46.856Z,6.81
2018-11-01T02:57:46.850Z,6.76
2018-11-01T02:58:46.835Z,6.77
2018-11-01T02:59:46.911Z,6.80
2018-11-01T03:00:46.845Z,6.73
2018-11-01T03:01:46.805Z,6.76
2018-11-01T03:02:46.789Z,6.77
2018-11-01T03:03:46.777Z,6.72
2018-11-01T03:04:46.771Z,6.77
2018-11-01T03:05:46.756Z,6.61
2018-11-01T03:06:46.757Z,6.58
2018-11-01T03:07:46.743Z,6.59
2018-11-01T03:08:46.723Z,6.54
2018-11-01T03:09:46.725Z,6.53
2018-11-01T03:10:46.742Z,6.35
2018-11-01T03:11:46.690Z,6.43
2018-11-01T03:12:46.678Z,6.28
2018-11-01T03:13:46.672Z,6.26
2018-11-01T03:14:46.656Z,6.11
2018-11-01T03:15:46.645Z,6.00
2018-11-01T03:16:46.665Z,5.96
2018-11-01T03:17:46.621Z,5.92
2018-11-01T03:18:46.612Z,5.92
2018-11-01T03:19:46.606Z,5.89
2018-11-01T03:20:46.589Z,5.78
2018-11-01T03:21:46.576Z,5.73
2018-11-01T03:22:46.578Z,5.66
2018-11-01T03:23:46.553Z,5.60
2018-11-01T03:24:46.543Z,5.64
2018-11-01T03:25:46.539Z,5.57
2018-11-01T03:26:46.533Z,5.55
2018-11-01T03:27:46.539Z,5.38
2018-11-01T03:28:46.500Z,5.41
2018-11-01T03:29:46.487Z,5.43
2018-11-01T03:30:46.479Z,5.41
2018-11-01T03:31:46.471Z,5.32
2018-11-01T03:32:46.453Z,5.32
2018-11-01T03:33:46.455Z,5.20
2018-11-01T03:34:46.434Z,5.09
2018-11-01T03:35:46.419Z,5.13
2018-11-01T03:36:46.408Z,5.09
2018-11-01T03:37:46.404Z,5.12
2018-11-01T03:38:46.439Z,5.09
2018-11-01T03:39:46.375Z,5.01
2018-11-01T03:40:46.361Z,4.99
2018-11-01T03:41:46.353Z,4.96
2018-11-01T03:42:46.339Z,4.92
2018-11-01T03:43:46.371Z,4.89
2018-11-01T03:44:46.320Z,4.94
2018-11-01T03:45:46.467Z,4.94
2018-11-01T03:46:46.295Z,4.92
2018-11-01T03:47:46.282Z,4.80
2018-11-01T03:48:46.273Z,4.80
2018-11-01T03:49:46.283Z,4.76
2018-11-01T03:50:46.271Z,4.92
2018-11-01T03:51:46.360Z,4.96
2018-11-01T03:52:46.230Z,5.05
2018-11-01T03:53:46.216Z,4.98
2018-11-01T03:54:46.207Z,5.05
2018-11-01T03:55:46.200Z,5.10
2018-11-01T03:56:46.195Z,5.16
2018-11-01T03:57:46.172Z,5.22
2018-11-01T03:58:46.160Z,5.31
2018-11-01T03:59:46.148Z,5.31
2018-11-01T04:00:46.152Z,5.31
2018-11-01T04:01:46.149Z,5.31
2018-11-01T04:02:46.119Z,5.40
2018-11-01T04:03:46.199Z,5.38
2018-11-01T04:04:46.094Z,5.41
2018-11-01T04:05:46.083Z,5.32
2018-11-01T04:06:46.087Z,5.30
2018-11-01T04:07:46.072Z,5.31
2018-11-01T04:08:46.050Z,5.28
2018-11-01T04:09:46.037Z,5.35
2018-11-01T04:10:46.040Z,5.32
2018-11-01T04:11:46.017Z,5.28
2018-11-01T04:12:46.043Z,5.28
2018-11-01T04:13:46.122Z,5.34
2018-11-01T04:14:45.982Z,5.27
2018-11-01T04:15:45.973Z,5.32
2018-11-01T04:16:45.965Z,5.35
2018-11-01T04:17:45.951Z,5.23
2018-11-01T04:18:45.952Z,5.14
2018-11-01T04:19:45.936Z,5.13
2018-11-01T04:20:45.948Z,5.12
2018-11-01T04:21:45.905Z,5.10
2018-11-01T04:22:45.893Z,5.02
2018-11-01T04:23:45.885Z,5.02
2018-11-01T04:24:45.872Z,5.02
2018-11-01T04:25:45.866Z,4.96
2018-11-01T04:26:45.862Z,5.07
2018-11-01T04:27:45.852Z,4.92
2018-11-01T04:28:45.857Z,5.10
2018-11-01T04:29:45.828Z,5.04
2018-11-01T04:30:45.818Z,5.01
2018-11-01T04:31:45.801Z,4.86
2018-11-01T04:32:45.784Z,4.91
2018-11-01T04:33:45.852Z,4.92
2018-11-01T04:34:45.760Z,4.98
2018-11-01T04:35:45.762Z,4.96
2018-11-01T04:36:45.739Z,4.89
2018-11-01T04:37:45.739Z,4.86
2018-11-01T04:38:45.717Z,4.86
2018-11-01T04:39:45.707Z,4.77
2018-11-01T04:40:45.770Z,4.73
2018-11-01T04:41:45.682Z,4.80
2018-11-01T04:42:45.673Z,4.84
2018-11-01T04:43:45.666Z,4.76
2018-11-01T04:44:45.651Z,4.86
2018-11-01T04:45:45.686Z,4.88
2018-11-01T04:46:45.629Z,4.83
2018-11-01T04:47:45.754Z,4.88
2018-11-01T04:48:45.606Z,4.84
2018-11-01T04:49:45.603Z,4.91
2018-11-01T04:50:45.583Z,4.88
2018-11-01T04:51:45.583Z,4.92
2018-11-01T04:52:45.561Z,4.83
2018-11-01T04:53:45.552Z,4.79
2018-11-01T04:54:45.539Z,4.69
2018-11-01T04:55:45.533Z,4.80
2018-11-01T04:56:45.545Z,4.80
2018-11-01T04:57:45.505Z,4.76
2018-11-01T04:58:45.494Z,4.79
2018-11-01T04:59:45.483Z,4.77
2018-11-01T05:00:45.472Z,4.76
2018-11-01T05:01:45.470Z,4.69
2018-11-01T05:02:45.465Z,4.62
2018-11-01T05:03:45.503Z,4.55
2018-11-01T05:04:45.428Z,4.58
2018-11-01T05:05:45.419Z,4.54
2018-11-01T05:06:45.408Z,4.47
2018-11-01T05:07:45.423Z,4.43
2018-11-01T05:08:45.384Z,4.39
2018-11-01T05:09:45.373Z,4.34
2018-11-01T05:10:45.362Z,4.25
2018-11-01T05:11:45.352Z,4.21
2018-11-01T05:12:45.413Z,4.15
2018-11-01T05:13:45.382Z,4.03
2018-11-01T05:14:45.319Z,4.01
2018-11-01T05:15:45.307Z,3.85
2018-11-01T05:16:45.297Z,3.88
2018-11-01T05:17:45.288Z,3.72
2018-11-01T05:18:45.274Z,3.72
2018-11-01T05:19:45.291Z,3.67
2018-11-01T05:20:45.252Z,3.76
2018-11-01T05:21:45.243Z,3.82
2018-11-01T05:22:45.229Z,3.76
2018-11-01T05:23:45.218Z,3.58
2018-11-01T05:24:45.251Z,3.68
2018-11-01T05:25:45.259Z,3.65
2018-11-01T05:26:45.186Z,3.72
2018-11-01T05:27:45.180Z,3.61
2018-11-01T05:28:45.161Z,3.53
2018-11-01T05:29:45.151Z,3.52
2018-11-01T05:30:45.186Z,3.36
2018-11-01T05:31:45.135Z,3.44
2018-11-01T05:32:45.117Z,3.39
2018-11-01T05:33:45.106Z,3.42
2018-11-01T05:34:45.093Z,3.33
2018-11-01T05:35:45.083Z,3.25
2018-11-01T05:36:45.086Z,3.40
2018-11-01T05:37:45.080Z,3.30
2018-11-01T05:38:45.050Z,3.31
2018-11-01T05:39:45.038Z,3.33
2018-11-01T05:40:45.025Z,3.36
2018-11-01T05:41:45.028Z,3.40
2018-11-01T05:42:45.005Z,3.36
2018-11-01T05:43:44.999Z,3.47
2018-11-01T05:44:44.982Z,3.54
2018-11-01T05:45:44.972Z,3.50
2018-11-01T05:46:44.972Z,3.58
2018-11-01T05:47:44.981Z,3.60
2018-11-01T05:48:44.941Z,3.52
2018-11-01T05:49:44.940Z,3.53
2018-11-01T05:50:44.914Z,3.54
2018-11-01T05:51:44.904Z,3.70
2018-11-01T05:52:44.892Z,3.61
2018-11-01T05:53:44.893Z,3.64
2018-11-01T05:54:44.872Z,3.60
2018-11-01T05:55:44.867Z,3.65
2018-11-01T05:56:44.880Z,3.78
2018-11-01T05:57:44.836Z,3.78
2018-11-01T05:58:44.825Z,3.70
2018-11-01T05:59:44.849Z,3.75
2018-11-01T06:00:44.805Z,3.79
2018-11-01T06:01:44.799Z,3.83
2018-11-01T06:02:44.824Z,3.83
2018-11-01T06:03:44.770Z,3.76
2018-11-01T06:04:44.759Z,3.85
2018-11-01T06:05:44.896Z,3.78
2018-11-01T06:06:44.734Z,3.88
2018-11-01T06:07:44.731Z,3.88
2018-11-01T06:08:44.746Z,3.80
2018-11-01T06:09:44.702Z,3.88
2018-11-01T06:10:44.692Z,3.83
2018-11-01T06:11:44.678Z,3.90
2018-11-01T06:12:44.669Z,3.83
2018-11-01T06:13:44.668Z,3.85
2018-11-01T06:14:44.682Z,3.88
2018-11-01T06:15:44.675Z,3.83
2018-11-01T06:16:44.623Z,3.82
2018-11-01T06:17:44.613Z,3.82
2018-11-01T06:18:44.603Z,3.76
2018-11-01T06:19:44.598Z,3.75
2018-11-01T06:20:44.814Z,3.78
2018-11-01T06:21:44.569Z,3.85
2018-11-01T06:22:44.558Z,3.76
2018-11-01T06:23:44.547Z,3.78
2018-11-01T06:24:44.535Z,3.65
2018-11-01T06:25:44.544Z,3.71
2018-11-01T06:26:44.511Z,3.68
2018-11-01T06:27:44.502Z,3.78
2018-11-01T06:28:44.496Z,3.64
2018-11-01T06:29:44.514Z,3.71
2018-11-01T06:30:44.470Z,3.67
2018-11-01T06:31:44.466Z,3.67
2018-11-01T06:32:44.450Z,3.60
2018-11-01T06:33:44.436Z,3.70
2018-11-01T06:34:44.423Z,3.62
2018-11-01T06:35:44.427Z,3.62
2018-11-01T06:36:44.401Z,3.60
2018-11-01T06:37:44.398Z,3.47
2018-11-01T06:38:44.379Z,3.40
2018-11-01T06:39:44.368Z,3.40
2018-11-01T06:40:44.368Z,3.33
2018-11-01T06:41:44.345Z,3.24
2018-11-01T06:42:44.334Z,3.24
2018-11-01T06:43:44.330Z,3.31
2018-11-01T06:44:44.392Z,3.24
2018-11-01T06:45:44.339Z,3.21
2018-11-01T06:46:44.288Z,3.20
2018-11-01T06:47:44.280Z,3.18
2018-11-01T06:48:44.267Z,3.21
2018-11-01T06:49:44.261Z,3.27
2018-11-01T06:50:44.244Z,3.20
2018-11-01T06:51:44.271Z,3.24
2018-11-01T06:52:44.223Z,3.21
2018-11-01T06:53:44.213Z,3.13
2018-11-01T06:54:44.199Z,3.10
2018-11-01T06:55:44.202Z,3.23
2018-11-01T06:56:44.178Z,3.33
2018-11-01T06:57:44.178Z,3.23
2018-11-01T06:58:44.232Z,3.33
2018-11-01T06:59:44.144Z,3.36
2018-11-01T07:00:44.140Z,3.36
2018-11-01T07:01:44.129Z,3.36
2018-11-01T07:02:44.109Z,3.42
2018-11-01T07:03:44.110Z,3.36
2018-11-01T07:04:44.092Z,3.46
2018-11-01T07:05:44.160Z,3.53
2018-11-01T07:06:44.065Z,3.44
2018-11-01T07:07:44.063Z,3.54
2018-11-01T07:08:44.056Z,3.58
2018-11-01T07:09:44.041Z,3.49
2018-11-01T07:10:44.022Z,3.62
2018-11-01T07:11:44.011Z,3.64
2018-11-01T07:12:44.000Z,3.65
2018-11-01T07:13:44.035Z,3.67
2018-11-01T07:14:43.977Z,3.68
2018-11-01T07:15:43.966Z,3.65
2018-11-01T07:16:43.954Z,3.80
2018-11-01T07:17:44.076Z,3.65
2018-11-01T07:18:43.932Z,3.70
2018-11-01T07:19:43.939Z,3.79
2018-11-01T07:20:43.912Z,3.89
2018-11-01T07:21:43.898Z,3.80
2018-11-01T07:22:43.888Z,3.89
2018-11-01T07:23:43.908Z,3.96
2018-11-01T07:24:43.865Z,4.00
2018-11-01T07:25:43.916Z,4.08
2018-11-01T07:26:43.843Z,4.16
2018-11-01T07:27:43.891Z,4.32
2018-11-01T07:28:43.880Z,4.33
2018-11-01T07:29:43.844Z,4.40
2018-11-01T07:30:43.797Z,4.42
2018-11-01T07:31:43.792Z,4.51
2018-11-01T07:32:43.868Z,4.47
2018-11-01T07:33:43.766Z,4.54
2018-11-01T07:34:43.753Z,4.65
2018-11-01T07:35:43.762Z,4.64
2018-11-01T07:36:43.731Z,4.80
2018-11-01T07:37:43.726Z,4.79
2018-11-01T07:38:43.708Z,4.67
2018-11-01T07:39:43.718Z,4.83
2018-11-01T07:40:43.719Z,4.89
2018-11-01T07:41:43.675Z,4.88
2018-11-01T07:42:43.664Z,4.91
2018-11-01T07:43:43.661Z,4.92
2018-11-01T07:44:43.646Z,4.92
2018-11-01T07:45:43.632Z,4.99
2018-11-01T07:46:43.664Z,4.98
2018-11-01T07:47:43.613Z,5.07
2018-11-01T07:48:43.670Z,5.07
2018-11-01T07:49:43.590Z,5.01
2018-11-01T07:50:43.577Z,5.05
2018-11-01T07:51:43.599Z,5.09
2018-11-01T07:52:43.662Z,5.09
2018-11-01T07:53:43.543Z,5.12
2018-11-01T07:54:43.530Z,5.10
2018-11-01T07:55:43.522Z,5.12
2018-11-01T07:56:43.511Z,5.20
2018-11-01T07:57:43.511Z,5.19
2018-11-01T07:58:43.487Z,5.31
2018-11-01T07:59:43.476Z,5.27
2018-11-01T08:00:43.464Z,5.28
2018-11-01T08:01:43.459Z,5.34
2018-11-01T08:02:43.453Z,5.34
2018-11-01T08:03:43.430Z,5.43
2018-11-01T08:04:43.418Z,5.40
2018-11-01T08:05:43.426Z,5.50
2018-11-01T08:06:43.399Z,5.49
2018-11-01T08:07:43.424Z,5.59
2018-11-01T08:08:43.374Z,5.56
2018-11-01T08:09:43.364Z,5.63
2018-11-01T08:10:43.351Z,5.66
2018-11-01T08:11:43.367Z,5.70
2018-11-01T08:12:43.328Z,5.78
2018-11-01T08:13:43.358Z,5.88
2018-11-01T08:14:43.307Z,5.85
2018-11-01T08:15:43.295Z,5.89
2018-11-01T08:16:43.283Z,6.03
2018-11-01T08:17:43.271Z,5.98
2018-11-01T08:18:43.261Z,6.13
2018-11-01T08:19:43.346Z,6.26
2018-11-01T08:20:43.374Z,6.30
2018-11-01T08:21:43.230Z,6.30
2018-11-01T08:22:43.216Z,6.38
2018-11-01T08:23:43.203Z,6.48
2018-11-01T08:24:43.226Z,6.59
2018-11-01T08:25:43.188Z,6.59
2018-11-01T08:26:43.169Z,6.63
2018-11-01T08:27:43.251Z,6.65
2018-11-01T08:28:43.148Z,6.73
2018-11-01T08:29:43.138Z,6.79
2018-11-01T08:30:43.138Z,6.84
2018-11-01T08:31:43.123Z,6.97
2018-11-01T08:32:43.102Z,6.94
2018-11-01T08:33:43.095Z,6.91
2018-11-01T08:34:43.081Z,7.01
2018-11-01T08:35:43.105Z,7.12
2018-11-01T08:36:43.058Z,7.08
2018-11-01T08:37:43.061Z,7.09
2018-11-01T08:38:43.036Z,7.17
2018-11-01T08:39:43.028Z,7.27
2018-11-01T08:40:43.012Z,7.31
2018-11-01T08:41:43.039Z,7.37
2018-11-01T08:42:42.991Z,7.40
2018-11-01T08:43:42.982Z,7.40
2018-11-01T08:44:42.966Z,7.45
2018-11-01T08:45:42.958Z,7.45
2018-11-01T08:46:42.945Z,7.41
2018-11-01T08:47:42.947Z,7.49
2018-11-01T08:48:42.923Z,7.49
2018-11-01T08:49:42.918Z,7.67
2018-11-01T08:50:42.935Z,7.69
2018-11-01T08:51:42.890Z,7.69
2018-11-01T08:52:42.879Z,7.66
2018-11-01T08:53:42.864Z,7.63
2018-11-01T08:54:42.857Z,7.63
2018-11-01T08:55:42.848Z,7.78
2018-11-01T08:56:42.868Z,7.79
2018-11-01T08:57:42.822Z,7.82
2018-11-01T08:58:42.809Z,7.82
2018-11-01T08:59:42.799Z,7.87
2018-11-01T09:00:42.786Z,7.85
2018-11-01T09:01:42.782Z,7.84
2018-11-01T09:02:42.778Z,7.94
2018-11-01T09:03:42.796Z,7.90
2018-11-01T09:04:42.780Z,7.81
2018-11-01T09:05:42.730Z,7.89
2018-11-01T09:06:42.719Z,7.93
2018-11-01T09:07:42.916Z,7.87
2018-11-01T09:08:42.698Z,8.02
2018-11-01T09:09:42.686Z,7.92
2018-11-01T09:10:42.706Z,8.02
2018-11-01T09:11:42.662Z,7.89
2018-11-01T09:12:42.719Z,7.97
2018-11-01T09:13:42.644Z,7.96
2018-11-01T09:14:42.734Z,8.00
2018-11-01T09:15:42.659Z,8.04
2018-11-01T09:16:42.640Z,8.03
2018-11-01T09:17:42.655Z,8.15
2018-11-01T09:18:42.585Z,8.25
2018-11-01T09:19:42.578Z,8.28
2018-11-01T09:20:42.562Z,8.29
2018-11-01T09:21:42.550Z,8.37
2018-11-01T09:22:42.568Z,8.42
2018-11-01T09:23:42.532Z,8.47
2018-11-01T09:24:42.517Z,8.62
2018-11-01T09:25:42.508Z,8.65
2018-11-01T09:26:42.505Z,8.66
2018-11-01T09:27:42.483Z,8.71
2018-11-01T09:28:42.485Z,8.69
2018-11-01T09:29:42.461Z,8.73
2018-11-01T09:30:42.449Z,8.81
2018-11-01T09:31:42.439Z,8.91
2018-11-01T09:32:42.435Z,8.91
2018-11-01T09:33:42.430Z,8.90
2018-11-01T09:34:42.405Z,9.01
2018-11-01T09:35:42.525Z,9.10
2018-11-01T09:36:42.384Z,9.15
2018-11-01T09:37:42.373Z,9.06
2018-11-01T09:38:42.367Z,9.06
2018-11-01T09:39:42.348Z,9.12
2018-11-01T09:40:42.340Z,9.13
2018-11-01T09:41:42.338Z,9.04
2018-11-01T09:42:42.314Z,9.24
2018-11-01T09:43:42.307Z,9.16
2018-11-01T09:44:42.338Z,9.18
2018-11-01T09:45:42.283Z,9.34
2018-11-01T09:46:42.647Z,9.38
2018-11-01T09:47:42.604Z,9.40
2018-11-01T09:48:42.247Z,9.34
2018-11-01T09:49:42.245Z,9.35
2018-11-01T09:50:42.245Z,9.45
2018-11-01T09:51:42.212Z,9.48
2018-11-01T09:52:42.202Z,9.45
2018-11-01T09:53:42.189Z,9.48
2018-11-01T09:54:42.215Z,9.53
2018-11-01T09:55:42.226Z,9.58
2018-11-01T09:56:42.161Z,9.64
2018-11-01T09:57:42.145Z,9.63
2018-11-01T09:58:42.134Z,9.58
2018-11-01T09:59:42.122Z,9.57
2018-11-01T10:00:42.128Z,9.56
2018-11-01T10:01:42.098Z,9.56
2018-11-01T10:02:42.097Z,9.60
2018-11-01T10:03:42.079Z,9.60
2018-11-01T10:04:42.065Z,9.64
2018-11-01T10:05:42.086Z,9.60
2018-11-01T10:06:42.043Z,9.63
2018-11-01T10:07:42.032Z,9.71
2018-11-01T10:08:42.028Z,9.53
2018-11-01T10:09:42.009Z,9.75
2018-11-01T10:10:41.995Z,9.58
2018-11-01T10:11:42.017Z,9.71
2018-11-01T10:12:41.973Z,9.75
2018-11-01T10:13:41.962Z,9.60
2018-11-01T10:14:41.953Z,9.61
2018-11-01T10:15:42.059Z,9.61
2018-11-01T10:16:42.041Z,9.67
2018-11-01T10:17:42.444Z,9.67
2018-11-01T10:18:41.919Z,9.67
2018-11-01T10:19:41.901Z,9.71
2018-11-01T10:20:41.889Z,9.78
2018-11-01T10:21:41.902Z,9.75
2018-11-01T10:22:41.986Z,9.70
2018-11-01T10:23:41.861Z,9.78
2018-11-01T10:24:41.837Z,9.93
2018-11-01T10:25:41.826Z,9.91
2018-11-01T10:26:41.822Z,9.94
2018-11-01T10:27:41.869Z,10.00
2018-11-01T10:28:41.830Z,10.06
2018-11-01T10:29:41.784Z,10.10
2018-11-01T10:30:41.767Z,10.17
2018-11-01T10:31:41.758Z,10.17
2018-11-01T10:32:41.751Z,10.30
2018-11-01T10:33:41.784Z,10.32
2018-11-01T10:34:41.760Z,10.36
2018-11-01T10:35:41.712Z,10.42
2018-11-01T10:36:41.700Z,10.36
2018-11-01T10:37:41.689Z,10.37
2018-11-01T10:38:41.678Z,10.40
2018-11-01T10:39:41.672Z,10.55
2018-11-01T10:40:41.718Z,10.53
2018-11-01T10:41:41.643Z,10.52
2018-11-01T10:42:41.632Z,10.46
2018-11-01T10:43:41.621Z,10.53
2018-11-01T10:44:41.609Z,10.44
2018-11-01T10:45:41.635Z,10.47
2018-11-01T10:46:41.587Z,10.55
2018-11-01T10:47:41.668Z,10.58
2018-11-01T10:48:41.567Z,10.56
2018-11-01T10:49:41.554Z,10.58
2018-11-01T10:50:41.542Z,10.65
2018-11-01T10:51:41.547Z,10.70
2018-11-01T10:52:41.521Z,10.86
2018-11-01T10:53:41.605Z,10.83
2018-11-01T10:54:41.498Z,10.88
2018-11-01T10:55:41.488Z,10.88
2018-11-01T10:56:41.474Z,10.96
2018-11-01T10:57:41.469Z,11.02
2018-11-01T10:58:41.451Z,11.01
2018-11-01T10:59:41.453Z,10.99
2018-11-01T11:00:41.590Z,11.06
2018-11-01T11:01:41.419Z,11.06
2018-11-01T11:02:41.420Z,11.01
2018-11-01T11:03:41.401Z,11.19
2018-11-01T11:04:41.399Z,11.11
2018-11-01T11:05:41.374Z,11.17
2018-11-01T11:06:41.625Z,11.09
2018-11-01T11:07:41.352Z,11.06
2018-11-01T11:08:41.341Z,11.11
2018-11-01T11:09:41.367Z,11.11
2018-11-01T11:10:41.316Z,11.10
2018-11-01T11:11:41.305Z,11.02
2018-11-01T11:12:41.293Z,11.06
2018-11-01T11:13:41.282Z,11.13
2018-11-01T11:14:41.397Z,11.14
2018-11-01T11:15:41.302Z,11.13
2018-11-01T11:16:41.247Z,11.21
2018-11-01T11:17:41.239Z,11.19
2018-11-01T11:18:41.275Z,11.24
2018-11-01T11:19:41.213Z,11.17
2018-11-01T11:20:41.401Z,11.24
2018-11-01T11:21:41.341Z,11.21
2018-11-01T11:22:41.181Z,11.24
2018-11-01T11:23:41.174Z,11.19
2018-11-01T11:24:41.159Z,11.20
2018-11-01T11:25:41.148Z,11.21
2018-11-01T11:26:41.137Z,11.24
2018-11-01T11:27:41.172Z,11.27
2018-11-01T11:28:41.114Z,11.28
2018-11-01T11:29:41.106Z,11.14
2018-11-01T11:30:41.180Z,11.24
2018-11-01T11:31:41.079Z,11.27
2018-11-01T11:32:41.069Z,11.28
2018-11-01T11:33:41.080Z,11.25
2018-11-01T11:34:41.045Z,11.20
2018-11-01T11:35:41.085Z,11.32
2018-11-01T11:36:41.024Z,11.31
2018-11-01T11:37:41.016Z,11.36
2018-11-01T11:38:41.014Z,11.29
2018-11-01T11:39:41.071Z,11.34
2018-11-01T11:40:41.023Z,11.28
2018-11-01T11:41:40.965Z,11.27
2018-11-01T11:42:40.956Z,11.24
2018-11-01T11:43:40.946Z,11.27
2018-11-01T11:44:40.933Z,11.29
2018-11-01T11:45:40.921Z,11.31
2018-11-01T11:46:40.947Z,11.32
2018-11-01T11:47:40.899Z,11.31
2018-11-01T11:48:40.887Z,11.32
2018-11-01T11:49:40.875Z,11.34
2018-11-01T11:50:40.865Z,11.36
2018-11-01T11:51:40.854Z,11.28
2018-11-01T11:52:40.865Z,11.36
2018-11-01T11:53:40.833Z,11.35
2018-11-01T11:54:40.819Z,11.27
2018-11-01T11:55:40.806Z,11.27
2018-11-01T11:56:40.830Z,11.32
2018-11-01T11:57:40.787Z,11.16
2018-11-01T11:58:40.780Z,11.28
2018-11-01T11:59:40.763Z,11.31
2018-11-01T12:00:40.752Z,11.27
2018-11-01T12:01:40.739Z,11.21
2018-11-01T12:02:40.745Z,11.27
2018-11-01T12:03:40.717Z,11.27
2018-11-01T12:04:40.716Z,11.21
2018-11-01T12:05:40.717Z,11.27
2018-11-01T12:06:40.685Z,11.34
2018-11-01T12:07:40.685Z,11.10
2018-11-01T12:08:40.661Z,11.20
2018-11-01T12:09:40.682Z,11.21
2018-11-01T12:10:40.645Z,11.27
2018-11-01T12:11:40.627Z,11.20
2018-11-01T12:12:40.616Z,11.17
2018-11-01T12:13:40.606Z,11.27
2018-11-01T12:14:40.599Z,11.32
2018-11-01T12:15:40.616Z,11.16
2018-11-01T12:16:40.578Z,11.20
2018-11-01T12:17:40.561Z,11.20
2018-11-01T12:18:40.549Z,11.21
2018-11-01T12:19:40.537Z,11.25
2018-11-01T12:20:40.527Z,11.17
2018-11-01T12:21:40.529Z,11.27
2018-11-01T12:22:40.512Z,11.17
2018-11-01T12:23:40.493Z,11.27
2018-11-01T12:24:40.481Z,11.19
2018-11-01T12:25:40.472Z,11.20
2018-11-01T12:26:40.476Z,11.29
2018-11-01T12:27:40.450Z,11.28
2018-11-01T12:28:40.653Z,11.36
2018-11-01T12:29:40.427Z,11.25
2018-11-01T12:30:40.414Z,11.35
2018-11-01T12:31:40.402Z,11.28
2018-11-01T12:32:40.420Z,11.34
2018-11-01T12:33:40.380Z,11.27
2018-11-01T12:34:40.376Z,11.27
2018-11-01T12:35:40.548Z,11.16
2018-11-01T12:36:40.346Z,11.25
2018-11-01T12:37:40.334Z,11.21
2018-11-01T12:38:40.351Z,11.24
2018-11-01T12:39:40.311Z,11.24
2018-11-01T12:40:40.306Z,11.24
2018-11-01T12:41:40.424Z,11.24
2018-11-01T12:42:40.278Z,11.34
2018-11-01T12:43:40.274Z,11.27
2018-11-01T12:44:40.266Z,11.21
2018-11-01T12:45:40.244Z,11.19
2018-11-01T12:46:40.236Z,11.25
2018-11-01T12:47:40.223Z,11.19
2018-11-01T12:48:40.212Z,11.24
2018-11-01T12:49:40.255Z,11.20
2018-11-01T12:50:40.186Z,11.27
2018-11-01T12:51:40.175Z,11.35
2018-11-01T12:52:40.176Z,11.19
2018-11-01T12:53:40.154Z,11.29
2018-11-01T12:54:40.155Z,11.25
2018-11-01T12:55:40.131Z,11.35
2018-11-01T12:56:40.121Z,11.36
2018-11-01T12:57:40.108Z,11.38
2018-11-01T12:58:40.100Z,11.36
2018-11-01T12:59:40.101Z,11.29
2018-11-01T13:00:40.104Z,11.38
2018-11-01T13:01:40.064Z,11.32
2018-11-01T13:02:40.116Z,11.32
2018-11-01T13:03:40.041Z,11.32
2018-11-01T13:04:40.066Z,11.32
2018-11-01T13:05:40.023Z,11.43
2018-11-01T13:06:40.008Z,11.43
2018-11-01T13:07:39.993Z,11.46
2018-11-01T13:08:39.985Z,11.44
2018-11-01T13:09:39.971Z,11.50
2018-11-01T13:10:40.079Z,11.52
2018-11-01T13:11:39.956Z,11.56
2018-11-01T13:12:39.942Z,11.56